Gaya Airport
VEGY : now visible

Airfield :











YOU CAN JOIN US ON...

 
LOGIN :

Register | Disclaimer

   EN    FR    IT 

 









Legend :    VFR   Marginal VFR   IFR   Intensive IFR   Very Intensive IFR
Visi :
Ceiling :
>= 8 km
>= 3000ft
5 to 8 km
1000 to 3000 ft
1500m to 5 km
500 to 1000 ft
800 to 1500m
200 to 500 ft
< 800m
< 200 ft
Symbols :   Thunderstorms  Fog  Heavy snow  Heavy precipitations  Wind > 20 kt






- Airport Elevation : 380 ft
- IATA code : GAY


VEGY - Gaya

CURRENT METAR :
  • 161800Z 00000KT 2200 BR NSC 14/11 Q1017

EXPIRED METARs :
  • 161700Z 00000KT 2500 HZ NSC 15/10 Q1017
  • 161600Z 10003KT 2500 HZ NSC 16/10 Q1017

TAF TAF VEGY
Valid from the 16 at 15:00 until the 17 at 00:00 UTC


161400Z 1615/1624 00000KT 3200 BR HZ NSC
BECMG 1621/1623 2200 BR HZ



MET'MAP, your aeronautical weather chart ! - Copyright ORBIFLY December 2007 - Disclaimer

ORBIFLY MET'MAP TEAM :

Programming & Development : Alexandra Zaïnal
Concept & original design : Baudouin d'Aumeries
Assistance for programming : Marc-Olivier Méhu
Technical & hardware support : Manuel Goepfert

Contact : metmap@orbifly.com




SOURCES & CREDITS :

   NOAA       Earth
Advisory